Louis Armstrong New Orleans International Airport
KMSY : now visible

Airfield :











YOU CAN JOIN US ON...

 
LOGIN :

Register | Disclaimer

   EN    FR    IT 

 









Legend :    VFR   Marginal VFR   IFR   Intensive IFR   Very Intensive IFR
Visi :
Ceiling :
>= 8 km
>= 3000ft
5 to 8 km
1000 to 3000 ft
1500m to 5 km
500 to 1000 ft
800 to 1500m
200 to 500 ft
< 800m
< 200 ft
Symbols :   Thunderstorms  Fog  Heavy snow  Heavy precipitations  Wind > 20 kt







- Airport Elevation : 4 ft
- IATA code : MSY


KMSY - Louis Armstrong New Orleans International

CURRENT METAR :
  • 161253Z 27005KT 2 1/2SM BR OVC006 20/19 A2983 RMK AO2 CIG 005V009 SLP104 T02000194

EXPIRED METARs :
  • 161153Z 24008KT 5SM BR OVC006 20/19 A2983 RMK AO2 SLP103 70001 T02000194 10200 20183 53006
  • 161053Z 26006KT 5SM BR OVC006 19/19 A2982 RMK AO2 SLP100 T01940194

TAF KMSY
Valid from the 16 at 12:00 until the 17 at 18:00 UTC


161124Z 1612/1718 26006KT 5SM BR OVC006
TEMPO 1612/1615 2SM BR BKN003
FM161500 VRB04KT P6SM SCT012 OVC015
FM162100 VRB04KT P6SM SCT025 OVC050
FM170600 18007KT 5SM BR SCT025 OVC090
FM170900 19006KT 3SM BR SCT008 OVC080
KZHU FIR / North America



MET'MAP, your aeronautical weather chart ! - Copyright ORBIFLY December 2007 - Disclaimer

ORBIFLY MET'MAP TEAM :

Programming & Development : Alexandra Zaïnal
Concept & Development : Baudouin d'Aumeries
Co-Development & Prog : Marc-Olivier Méhu
Technical & hardware support : Manuel Goepfert

Contact : metmap@orbifly.com




SOURCES & CREDITS :

   NOAA       Earth
Advisory